Time,TemperatureF,DewpointF,PressureIn,WindDirection,WindDirectionDegrees,WindSpeedMPH,WindSpeedGustMPH,Humidity,HourlyPrecipIn,Conditions,Clouds,dailyrainin,SoftwareType,DateUTC
2013-10-17 17:12:00,62.9,50.1,29.72,SE,135,0.0,0.0,63,0.00,,,0.01,Wunderground v.1.15,2013-10-17 21:12:00,
2013-10-17 17:15:00,62.8,50.0,29.72,SE,134,0.0,0.0,63,0.00,,,0.01,Wunderground v.1.15,2013-10-17 21:15:00,
2013-10-17 17:20:00,62.7,49.9,29.72,SE,135,0.0,0.0,63,0.00,,,0.01,Wunderground v.1.15,2013-10-17 21:20:00,
2013-10-17 17:25:00,62.6,50.7,29.72,SE,135,0.0,0.0,65,0.00,,,0.01,Wunderground v.1.15,2013-10-17 21:25:00,
2013-10-17 17:30:00,62.4,50.5,29.71,SE,135,0.0,0.0,65,0.00,,,0.01,Wunderground v.1.15,2013-10-17 21:30:00,
2013-10-17 17:40:00,62.0,50.1,29.70,East,93,0.0,0.0,65,0.00,,,0.01,Wunderground v.1.15,2013-10-17 21:40:00,
2013-10-17 17:45:00,61.8,50.3,29.69,East,92,0.0,0.0,66,0.00,,,0.01,Wunderground v.1.15,2013-10-17 21:45:00,
2013-10-17 17:50:00,61.6,49.7,29.69,North,7,0.0,1.0,65,0.00,,,0.01,Wunderground v.1.15,2013-10-17 21:50:00,
2013-10-17 17:55:00,61.4,49.9,29.67,East,98,0.0,0.0,66,0.00,,,0.01,Wunderground v.1.15,2013-10-17 21:55:00,
2013-10-17 18:00:00,61.4,49.9,29.68,East,94,0.0,0.0,66,0.00,,,0.01,Wunderground v.1.15,2013-10-17 22:00:00,
2013-10-17 18:10:00,60.9,49.9,29.67,ESE,119,0.0,0.0,67,0.00,,,0.01,Wunderground v.1.15,2013-10-17 22:10:00,
2013-10-17 18:15:00,60.4,50.2,29.67,ESE,119,0.0,0.0,69,0.00,,,0.01,Wunderground v.1.15,2013-10-17 22:15:00,
2013-10-17 18:20:00,60.1,50.3,29.67,ESE,119,0.0,0.0,70,0.00,,,0.01,Wunderground v.1.15,2013-10-17 22:20:00,
2013-10-17 18:25:00,59.8,50.0,29.66,ESE,119,0.0,0.0,70,0.00,,,0.01,Wunderground v.1.15,2013-10-17 22:25:00,
2013-10-17 18:30:00,59.6,49.8,29.66,ESE,117,0.0,0.0,70,0.00,,,0.01,Wunderground v.1.15,2013-10-17 22:30:00,
2013-10-17 18:35:00,59.5,50.1,29.65,ESE,117,0.0,0.0,71,0.00,,,0.01,Wunderground v.1.15,2013-10-17 22:35:00,
2013-10-17 18:45:00,59.4,50.0,29.66,East,96,0.0,0.0,71,0.00,,,0.01,Wunderground v.1.15,2013-10-17 22:45:00,
2013-10-17 18:50:00,59.4,50.0,29.66,East,96,0.0,0.0,71,0.00,,,0.01,Wunderground v.1.15,2013-10-17 22:50:00,
2013-10-17 18:55:00,59.4,49.6,29.66,East,96,0.0,0.0,70,0.00,,,0.01,Wunderground v.1.15,2013-10-17 22:55:00,
2013-10-17 19:00:00,59.3,50.6,29.67,East,96,0.0,0.0,73,0.00,,,0.01,Wunderground v.1.15,2013-10-17 23:00:00,
2013-10-17 19:10:00,59.2,49.8,29.68,East,96,0.0,0.0,71,0.00,,,0.01,Wunderground v.1.15,2013-10-17 23:10:00,
2013-10-17 19:20:00,59.3,50.6,29.68,East,96,0.0,0.0,73,0.00,,,0.01,Wunderground v.1.15,2013-10-17 23:20:00,
2013-10-17 19:25:00,58.9,51.3,29.69,North,352,0.0,0.0,76,0.00,,,0.02,Wunderground v.1.15,2013-10-17 23:25:00,
2013-10-17 19:30:00,58.1,51.6,29.69,North,352,0.0,1.0,79,0.26,,,0.04,Wunderground v.1.15,2013-10-17 23:30:00,
2013-10-17 19:35:00,57.2,52.4,29.68,NE,37,0.0,1.0,84,0.27,,,0.06,Wunderground v.1.15,2013-10-17 23:35:00,
2013-10-17 19:40:00,56.4,52.3,29.70,NE,37,0.0,0.0,86,0.36,,,0.08,Wunderground v.1.15,2013-10-17 23:40:00,
2013-10-17 19:50:00,55.6,52.7,29.71,West,281,0.0,0.0,90,0.21,,,0.12,Wunderground v.1.15,2013-10-17 23:50:00,
2013-10-17 19:55:00,55.3,52.7,29.71,WNW,283,0.0,0.0,91,0.21,,,0.14,Wunderground v.1.15,2013-10-17 23:55:00,
2013-10-17 20:00:00,55.1,52.8,29.71,WNW,283,0.0,0.0,92,0.18,,,0.16,Wunderground v.1.15,2013-10-18 00:00:00,
2013-10-17 20:10:00,54.8,52.8,29.71,North,356,0.0,1.0,93,0.16,,,0.19,Wunderground v.1.15,2013-10-18 00:10:00,
2013-10-17 20:15:00,54.6,52.6,29.71,NNW,342,0.0,1.0,93,0.24,,,0.21,Wunderground v.1.15,2013-10-18 00:15:00,
2013-10-17 20:25:00,54.3,52.6,29.71,NNW,342,0.0,1.0,94,0.27,,,0.25,Wunderground v.1.15,2013-10-18 00:25:00,
2013-10-17 20:30:00,54.2,52.5,29.70,NW,321,1.0,1.0,94,0.27,,,0.27,Wunderground v.1.15,2013-10-18 00:30:00,
2013-10-17 20:35:00,54.2,52.8,29.71,NNW,337,1.0,1.0,95,0.27,,,0.29,Wunderground v.1.15,2013-10-18 00:35:00,
2013-10-17 20:40:00,54.2,52.8,29.71,NW,319,1.0,1.0,95,0.29,,,0.31,Wunderground v.1.15,2013-10-18 00:40:00,
2013-10-17 20:45:00,54.2,52.8,29.72,NW,315,1.0,1.0,95,0.38,,,0.34,Wunderground v.1.15,2013-10-18 00:45:00,
2013-10-17 20:50:00,54.2,52.8,29.71,ENE,77,0.0,0.0,95,0.28,,,0.37,Wunderground v.1.15,2013-10-18 00:50:00,
2013-10-17 20:55:00,54.1,53.0,29.72,NNW,343,0.0,0.0,96,0.29,,,0.40,Wunderground v.1.15,2013-10-18 00:55:00,
2013-10-17 21:00:00,54.1,53.0,29.72,NNW,339,0.0,0.0,96,0.23,,,0.42,Wunderground v.1.15,2013-10-18 01:00:00,
2013-10-17 21:10:00,54.0,52.9,29.72,NNW,330,1.0,1.0,96,0.26,,,0.47,Wunderground v.1.15,2013-10-18 01:10:00,
2013-10-17 21:15:00,54.0,52.9,29.72,North,4,0.0,2.0,96,0.22,,,0.49,Wunderground v.1.15,2013-10-18 01:15:00,
2013-10-17 21:25:00,53.9,52.8,29.70,NW,326,1.0,1.0,96,0.10,,,0.51,Wunderground v.1.15,2013-10-18 01:25:00,
2013-10-17 21:30:00,53.8,52.7,29.71,NNW,336,1.0,1.0,96,0.19,,,0.52,Wunderground v.1.15,2013-10-18 01:30:00,
2013-10-17 21:35:00,53.8,52.7,29.72,NW,321,0.0,1.0,96,0.08,,,0.52,Wunderground v.1.15,2013-10-18 01:35:00,
2013-10-17 21:40:00,53.7,52.6,29.72,East,100,0.0,0.0,96,0.05,,,0.52,Wunderground v.1.15,2013-10-18 01:40:00,
2013-10-17 21:45:00,53.7,52.6,29.70,ENE,77,0.0,1.0,96,0.05,,,0.53,Wunderground v.1.15,2013-10-18 01:45:00,
2013-10-17 21:50:00,53.6,52.5,29.69,ENE,70,1.0,1.0,96,0.09,,,0.54,Wunderground v.1.15,2013-10-18 01:50:00,
2013-10-17 22:00:00,53.4,52.3,29.66,ENE,70,0.0,2.0,96,0.07,,,0.55,Wunderground v.1.15,2013-10-18 02:00:00,
2013-10-17 22:10:00,53.1,52.0,29.66,WNW,283,1.0,1.0,96,0.05,,,0.56,Wunderground v.1.15,2013-10-18 02:10:00,
2013-10-17 22:15:00,53.1,52.0,29.66,ENE,75,0.0,1.0,96,0.05,,,0.56,Wunderground v.1.15,2013-10-18 02:15:00,
2013-10-17 22:20:00,53.0,51.9,29.66,NW,306,0.0,0.0,96,0.05,,,0.56,Wunderground v.1.15,2013-10-18 02:20:00,
2013-10-17 22:30:00,52.9,51.8,29.66,ESE,114,0.0,0.0,96,0.00,,,0.56,Wunderground v.1.15,2013-10-18 02:30:00,
2013-10-17 22:35:00,52.9,51.8,29.66,East,97,0.0,0.0,96,0.00,,,0.56,Wunderground v.1.15,2013-10-18 02:35:00,
2013-10-17 22:40:00,52.8,51.7,29.66,ESE,103,1.0,1.0,96,0.00,,,0.56,Wunderground v.1.15,2013-10-18 02:40:00,
2013-10-17 22:45:00,52.7,51.6,29.66,SE,124,0.0,1.0,96,0.00,,,0.56,Wunderground v.1.15,2013-10-18 02:45:00,
2013-10-17 22:50:00,52.6,51.5,29.66,SE,139,0.0,0.0,96,0.00,,,0.56,Wunderground v.1.15,2013-10-18 02:50:00,
2013-10-17 22:55:00,52.4,51.3,29.66,SE,139,0.0,0.0,96,0.00,,,0.56,Wunderground v.1.15,2013-10-18 02:55:00,
2013-10-17 23:00:00,52.2,51.1,29.66,SE,139,0.0,0.0,96,0.00,,,0.56,Wunderground v.1.15,2013-10-18 03:00:00,
2013-10-17 23:10:00,52.1,51.0,29.68,WNW,282,1.0,1.0,96,0.00,,,0.56,Wunderground v.1.15,2013-10-18 03:10:00,
2013-10-17 23:15:00,52.0,50.9,29.68,West,277,0.0,1.0,96,0.00,,,0.56,Wunderground v.1.15,2013-10-18 03:15:00,
2013-10-17 23:20:00,51.9,51.1,29.68,WNW,283,0.0,1.0,97,0.00,,,0.56,Wunderground v.1.15,2013-10-18 03:20:00,
2013-10-17 23:25:00,51.8,51.0,29.69,WNW,285,0.0,1.0,97,0.00,,,0.56,Wunderground v.1.15,2013-10-18 03:25:00,
2013-10-17 23:35:00,52.0,51.2,29.69,WNW,285,0.0,0.0,97,0.00,,,0.56,Wunderground v.1.15,2013-10-18 03:35:00,
2013-10-17 23:40:00,52.1,51.3,29.70,WNW,285,0.0,0.0,97,0.00,,,0.56,Wunderground v.1.15,2013-10-18 03:40:00,
2013-10-17 23:45:00,52.2,51.4,29.70,West,272,0.0,0.0,97,0.00,,,0.56,Wunderground v.1.15,2013-10-18 03:45:00,
2013-10-17 23:50:00,52.3,51.5,29.70,West,269,0.0,0.0,97,0.00,,,0.56,Wunderground v.1.15,2013-10-18 03:50:00,
2013-10-17 23:55:00,52.4,51.6,29.70,West,274,0.0,1.0,97,0.00,,,0.56,Wunderground v.1.15,2013-10-18 03:55:00,